createdAt,value
2023-04-16T00:01:31.013Z,91.31
2023-04-16T00:04:00.028Z,91.27
2023-04-16T00:06:28.952Z,91.37
2023-04-16T00:08:57.679Z,91.42
2023-04-16T00:11:26.603Z,91.41
2023-04-16T00:13:55.191Z,91.28
2023-04-16T00:16:23.801Z,91.09
2023-04-16T00:18:52.477Z,90.96
2023-04-16T00:21:21.114Z,90.63
2023-04-16T00:23:49.981Z,90.58
2023-04-16T00:26:18.802Z,90.06
2023-04-16T00:28:47.792Z,89.52
2023-04-16T00:31:16.790Z,89.15
2023-04-16T00:33:45.448Z,88.63
2023-04-16T00:36:14.015Z,88.40
2023-04-16T00:38:42.914Z,88.00
2023-04-16T00:41:11.632Z,87.39
2023-04-16T00:43:40.608Z,86.96
2023-04-16T00:46:10.134Z,86.55
2023-04-16T00:48:40.033Z,85.98
2023-04-16T00:51:09.564Z,85.44
2023-04-16T00:53:38.396Z,85.56
2023-04-16T00:56:08.038Z,85.29
2023-04-16T00:58:38.452Z,85.19
2023-04-16T01:01:07.204Z,85.21
2023-04-16T01:03:44.181Z,84.88
2023-04-16T01:06:14.275Z,84.71
2023-04-16T01:08:43.274Z,84.63
2023-04-16T01:11:12.686Z,84.77
2023-04-16T01:13:41.610Z,84.66
2023-04-16T01:16:12.332Z,84.70
2023-04-16T01:18:41.466Z,84.39
2023-04-16T01:21:11.084Z,84.19
2023-04-16T01:23:39.807Z,84.13
2023-04-16T01:26:08.751Z,84.02
2023-04-16T01:28:37.342Z,83.97
2023-04-16T01:31:06.125Z,83.76
2023-04-16T01:34:21.649Z,83.58
2023-04-16T01:36:50.294Z,83.56
2023-04-16T01:39:19.700Z,83.39
2023-04-16T01:41:48.261Z,83.38
2023-04-16T01:44:16.842Z,83.25
2023-04-16T01:46:45.750Z,83.01
2023-04-16T01:49:14.399Z,83.11
2023-04-16T01:51:43.125Z,83.21
2023-04-16T01:54:12.050Z,83.31
2023-04-16T01:56:41.425Z,82.98
2023-04-16T01:59:10.879Z,82.97
2023-04-16T02:01:42.932Z,82.88
2023-04-16T02:04:12.680Z,82.90
2023-04-16T02:06:41.917Z,82.59
2023-04-16T02:09:10.894Z,82.50
2023-04-16T02:11:41.034Z,82.91
2023-04-16T02:14:09.672Z,82.91
2023-04-16T02:16:38.388Z,82.78
2023-04-16T02:19:48.124Z,82.84
2023-04-16T02:22:17.501Z,82.88
2023-04-16T02:24:46.115Z,83.09
2023-04-16T02:27:15.099Z,83.19
2023-04-16T02:29:44.469Z,83.13
2023-04-16T02:32:15.994Z,82.98
2023-04-16T02:34:46.246Z,83.10
2023-04-16T02:37:15.591Z,83.21
2023-04-16T02:39:44.360Z,83.41
2023-04-16T02:42:13.457Z,83.51
2023-04-16T02:44:43.367Z,83.53
2023-04-16T02:47:12.065Z,83.37
2023-04-16T02:49:40.964Z,83.37
2023-04-16T02:52:09.578Z,83.54
2023-04-16T02:54:38.318Z,83.48
2023-04-16T02:57:07.004Z,83.94
2023-04-16T02:59:35.824Z,83.77
2023-04-16T03:02:04.424Z,83.81
2023-04-16T03:04:33.814Z,84.22
2023-04-16T03:07:02.569Z,84.25
2023-04-16T03:09:33.449Z,84.31
2023-04-16T03:12:02.936Z,84.74
2023-04-16T03:14:32.365Z,84.91
2023-04-16T03:17:01.096Z,84.75
2023-04-16T03:19:29.961Z,84.95
2023-04-16T03:21:58.515Z,84.99
2023-04-16T03:24:28.391Z,84.97
2023-04-16T03:26:59.100Z,85.35
2023-04-16T03:29:27.737Z,85.61
2023-04-16T03:31:56.344Z,85.68
2023-04-16T03:34:25.031Z,86.03
2023-04-16T03:36:53.659Z,86.47
2023-04-16T03:39:22.324Z,86.73
2023-04-16T03:41:51.016Z,86.81
2023-04-16T03:44:19.917Z,86.72
2023-04-16T03:46:48.604Z,86.78
2023-04-16T03:49:17.991Z,86.76
2023-04-16T03:51:46.921Z,86.85
2023-04-16T03:54:15.861Z,87.21
2023-04-16T03:56:46.017Z,87.64
2023-04-16T03:59:14.699Z,87.72
2023-04-16T04:01:43.513Z,87.61
2023-04-16T04:04:12.409Z,87.82
2023-04-16T04:06:41.391Z,87.64
2023-04-16T04:09:10.597Z,87.44
2023-04-16T04:11:39.447Z,86.93
2023-04-16T04:14:08.269Z,87.09
2023-04-16T04:16:37.030Z,86.83
2023-04-16T04:19:05.619Z,87.07
2023-04-16T04:21:34.194Z,86.92
2023-04-16T04:24:05.135Z,87.05
2023-04-16T04:26:35.063Z,87.63
2023-04-16T04:29:03.785Z,87.89
2023-04-16T04:31:32.665Z,88.16
2023-04-16T04:34:01.717Z,88.36
2023-04-16T04:36:30.372Z,88.49
2023-04-16T04:38:59.008Z,88.36
2023-04-16T04:41:27.876Z,88.16
2023-04-16T04:43:56.758Z,88.03
2023-04-16T04:46:26.586Z,87.79
2023-04-16T04:48:55.650Z,87.66
2023-04-16T04:51:24.404Z,87.32
2023-04-16T04:53:52.970Z,87.37
2023-04-16T04:56:22.801Z,87.47
2023-04-16T04:58:51.674Z,87.31
2023-04-16T05:01:21.062Z,86.93
2023-04-16T05:03:49.556Z,87.20
2023-04-16T05:06:18.122Z,87.11
2023-04-16T05:08:46.551Z,87.04
2023-04-16T05:11:14.969Z,87.12
2023-04-16T05:13:43.387Z,87.24
2023-04-16T05:16:11.794Z,87.34
2023-04-16T05:18:40.223Z,87.24
2023-04-16T05:21:08.625Z,87.23
2023-04-16T05:23:37.007Z,86.78
2023-04-16T05:26:05.579Z,86.62
2023-04-16T05:28:34.060Z,86.31
2023-04-16T05:31:02.800Z,86.26
2023-04-16T05:33:31.403Z,86.29
2023-04-16T05:35:59.712Z,86.13
2023-04-16T05:38:28.173Z,86.22
2023-04-16T05:40:56.727Z,86.42
2023-04-16T05:43:25.653Z,86.33
2023-04-16T05:45:54.061Z,85.94
2023-04-16T05:48:22.476Z,85.78
2023-04-16T05:50:50.848Z,85.82
2023-04-16T05:53:19.308Z,86.00
2023-04-16T05:55:47.695Z,85.94
2023-04-16T05:58:16.138Z,85.94
2023-04-16T06:00:44.853Z,85.41
2023-04-16T06:03:13.412Z,85.63
2023-04-16T06:05:41.877Z,85.05
2023-04-16T06:08:10.544Z,84.82
2023-04-16T06:10:39.529Z,84.04
2023-04-16T06:13:08.032Z,84.16
2023-04-16T06:15:36.405Z,84.44
2023-04-16T06:18:05.043Z,84.17
2023-04-16T06:20:33.479Z,84.86
2023-04-16T06:23:01.834Z,84.69
2023-04-16T06:25:30.209Z,84.33
2023-04-16T06:27:58.524Z,83.79
2023-04-16T06:30:27.003Z,84.32
2023-04-16T06:32:55.538Z,84.62
2023-04-16T06:35:24.138Z,83.51
2023-04-16T06:37:52.616Z,82.71
2023-04-16T06:40:21.077Z,82.23
2023-04-16T06:42:49.568Z,82.10
2023-04-16T06:45:18.016Z,81.06
2023-04-16T06:47:46.563Z,81.38
2023-04-16T06:50:15.108Z,80.99
2023-04-16T06:52:43.596Z,81.98
2023-04-16T06:55:12.285Z,82.20
2023-04-16T06:57:41.281Z,82.26
2023-04-16T07:00:10.581Z,81.97
2023-04-16T07:02:39.105Z,80.73
2023-04-16T07:05:09.292Z,80.65
2023-04-16T07:07:37.684Z,80.92
2023-04-16T07:10:06.526Z,80.32
2023-04-16T07:12:35.031Z,78.69
2023-04-16T07:15:03.595Z,79.08
2023-04-16T07:17:32.215Z,79.75
2023-04-16T07:20:00.557Z,79.41
2023-04-16T07:22:29.029Z,78.38
2023-04-16T07:24:57.619Z,77.68
2023-04-16T07:27:26.075Z,77.90
2023-04-16T07:29:55.545Z,77.91
2023-04-16T07:32:24.493Z,77.17
2023-04-16T07:34:53.099Z,77.22
2023-04-16T07:37:22.443Z,76.75
2023-04-16T07:39:51.982Z,75.89
2023-04-16T07:42:21.021Z,76.34
2023-04-16T07:44:49.517Z,76.34
2023-04-16T07:47:18.112Z,76.73
2023-04-16T07:49:46.636Z,77.32
2023-04-16T07:52:14.983Z,76.62
2023-04-16T07:54:43.600Z,76.49
2023-04-16T07:57:12.462Z,76.26
2023-04-16T07:59:41.155Z,76.34
2023-04-16T08:02:13.631Z,75.52
2023-04-16T08:04:43.934Z,75.58
2023-04-16T08:07:12.833Z,76.33
2023-04-16T08:10:08.562Z,76.28
2023-04-16T08:12:37.052Z,75.43
2023-04-16T08:15:06.372Z,75.32
2023-04-16T08:17:35.648Z,74.23
2023-04-16T08:20:04.723Z,73.77
2023-04-16T08:22:33.707Z,72.56
2023-04-16T08:25:04.088Z,73.18
2023-04-16T08:27:32.453Z,72.88
2023-04-16T08:30:00.853Z,72.52
2023-04-16T08:32:29.290Z,71.67
2023-04-16T08:34:58.123Z,71.48
2023-04-16T08:37:26.993Z,71.32
2023-04-16T08:39:55.509Z,71.57
2023-04-16T08:42:32.816Z,71.23
2023-04-16T08:45:08.351Z,71.72
2023-04-16T08:47:39.729Z,71.85
2023-04-16T08:50:11.165Z,72.46
2023-04-16T08:52:46.128Z,72.74
2023-04-16T08:55:14.987Z,72.07
2023-04-16T08:57:48.193Z,71.79
2023-04-16T09:00:16.983Z,71.33
2023-04-16T09:02:45.923Z,71.55
2023-04-16T09:05:17.368Z,71.06
2023-04-16T09:07:46.749Z,70.79
2023-04-16T09:10:16.279Z,71.30
2023-04-16T09:12:44.963Z,72.09
2023-04-16T09:15:14.159Z,72.45
2023-04-16T09:17:42.945Z,71.72
2023-04-16T09:20:11.574Z,72.29
2023-04-16T09:22:42.865Z,72.55
2023-04-16T09:25:11.617Z,72.57
2023-04-16T09:27:40.267Z,72.82
2023-04-16T09:30:25.774Z,73.09
2023-04-16T09:33:12.144Z,73.57
2023-04-16T09:35:48.551Z,73.88
2023-04-16T09:38:17.191Z,73.90
2023-04-16T09:40:47.675Z,74.40
2023-04-16T09:43:19.670Z,74.20
2023-04-16T09:45:55.488Z,74.39
2023-04-16T09:48:31.733Z,74.29
2023-04-16T09:51:00.942Z,74.47
2023-04-16T09:53:31.570Z,74.73
2023-04-16T09:56:01.523Z,74.52
2023-04-16T09:58:29.977Z,73.66
2023-04-16T10:01:04.503Z,73.55
2023-04-16T10:03:34.828Z,73.69
2023-04-16T10:06:16.812Z,73.47
2023-04-16T10:08:58.072Z,73.63
2023-04-16T10:11:26.639Z,73.49
2023-04-16T10:13:54.945Z,73.30
2023-04-16T10:16:24.070Z,73.10
2023-04-16T10:18:53.522Z,73.01
2023-04-16T10:21:22.301Z,71.79
2023-04-16T10:23:52.273Z,70.69
2023-04-16T10:26:21.720Z,70.13
2023-04-16T10:28:50.269Z,69.81
2023-04-16T10:31:18.777Z,68.66
2023-04-16T10:33:47.623Z,68.16
2023-04-16T10:36:26.810Z,67.65
2023-04-16T10:38:59.729Z,66.43
2023-04-16T10:41:28.285Z,65.53
2023-04-16T10:44:10.217Z,64.38
2023-04-16T10:46:52.113Z,64.91
2023-04-16T10:49:25.639Z,64.70
2023-04-16T10:51:57.758Z,64.37
2023-04-16T10:54:27.215Z,64.92
2023-04-16T10:57:04.366Z,64.84
2023-04-16T10:59:35.210Z,65.42
2023-04-16T11:02:19.682Z,66.06
2023-04-16T11:04:49.869Z,66.35
2023-04-16T11:07:32.089Z,67.00
2023-04-16T11:10:07.423Z,67.81
2023-04-16T11:12:39.517Z,68.32
2023-04-16T11:15:10.057Z,68.47
2023-04-16T11:17:45.484Z,69.01
2023-04-16T11:20:24.953Z,69.56
2023-04-16T11:22:55.592Z,70.13
2023-04-16T11:25:25.534Z,70.31
2023-04-16T11:27:54.066Z,70.49
2023-04-16T11:30:30.693Z,70.59
2023-04-16T11:32:59.158Z,70.64
2023-04-16T11:35:27.793Z,70.69
2023-04-16T11:37:57.269Z,70.05
2023-04-16T11:40:29.562Z,70.62
2023-04-16T11:43:12.833Z,70.33
2023-04-16T11:46:02.631Z,69.82
2023-04-16T11:48:50.132Z,70.13
2023-04-16T11:51:19.407Z,70.58
2023-04-16T11:53:49.691Z,70.90
2023-04-16T11:56:29.587Z,70.51
2023-04-16T11:59:10.994Z,71.60
2023-04-16T12:01:41.815Z,72.99
2023-04-16T12:04:10.653Z,73.52
2023-04-16T12:06:39.183Z,74.25
2023-04-16T12:09:27.441Z,75.69
2023-04-16T12:11:55.939Z,77.37
2023-04-16T12:14:24.478Z,77.82
2023-04-16T12:16:53.157Z,79.47
2023-04-16T12:19:21.744Z,81.16
2023-04-16T12:21:51.045Z,81.98
2023-04-16T12:24:24.367Z,82.70
2023-04-16T12:27:03.433Z,83.13
2023-04-16T12:29:32.252Z,84.65
2023-04-16T12:32:00.836Z,85.17
2023-04-16T12:34:48.581Z,85.78
2023-04-16T12:37:17.618Z,87.24
2023-04-16T12:39:47.890Z,87.41
2023-04-16T12:42:16.790Z,88.03
2023-04-16T12:44:45.164Z,86.64
2023-04-16T12:47:13.587Z,87.20
2023-04-16T12:49:42.160Z,87.55
2023-04-16T12:52:11.080Z,88.21
2023-04-16T12:54:39.453Z,88.71
2023-04-16T12:57:07.768Z,88.71
2023-04-16T12:59:36.343Z,88.46
2023-04-16T13:02:04.875Z,89.43
2023-04-16T13:04:33.473Z,89.65
2023-04-16T13:07:02.406Z,89.66
2023-04-16T13:09:31.079Z,89.97
2023-04-16T13:11:59.434Z,90.76
2023-04-16T13:14:27.856Z,91.54
2023-04-16T13:16:56.304Z,91.63
2023-04-16T13:19:24.741Z,91.96
2023-04-16T13:21:53.575Z,92.69
2023-04-16T13:24:23.313Z,93.38
2023-04-16T13:26:56.588Z,93.85
2023-04-16T13:29:25.080Z,93.94
2023-04-16T13:31:53.643Z,93.46
2023-04-16T13:34:22.054Z,94.03
2023-04-16T13:36:50.388Z,94.43
2023-04-16T13:39:18.877Z,94.80
2023-04-16T13:41:49.259Z,94.56
2023-04-16T13:44:17.796Z,94.87
2023-04-16T13:46:48.015Z,94.43
2023-04-16T13:49:16.528Z,95.05
2023-04-16T13:51:45.050Z,95.16
2023-04-16T13:54:13.527Z,95.67
2023-04-16T13:56:41.949Z,96.14
2023-04-16T13:59:10.545Z,96.30
2023-04-16T14:01:39.018Z,95.83
2023-04-16T14:04:07.643Z,95.95
2023-04-16T14:06:36.139Z,95.50
2023-04-16T14:09:04.886Z,95.61
2023-04-16T14:11:33.266Z,95.89
2023-04-16T14:14:01.688Z,95.45
2023-04-16T14:16:30.120Z,95.60
2023-04-16T14:18:58.552Z,95.35
2023-04-16T14:21:27.505Z,95.62
2023-04-16T14:23:56.097Z,96.19
2023-04-16T14:26:24.539Z,95.81
2023-04-16T14:28:52.961Z,96.20
2023-04-16T14:31:21.392Z,96.80
2023-04-16T14:33:49.752Z,96.96
2023-04-16T14:36:18.149Z,97.87
2023-04-16T14:38:48.110Z,98.67
2023-04-16T14:41:16.522Z,99.13
2023-04-16T14:43:45.236Z,98.98
2023-04-16T14:46:17.937Z,98.26
2023-04-16T14:48:46.493Z,99.20
2023-04-16T14:51:15.082Z,98.57
2023-04-16T14:53:44.122Z,98.43
2023-04-16T14:56:13.734Z,98.11
2023-04-16T14:58:43.635Z,98.16
2023-04-16T15:01:13.863Z,98.29
2023-04-16T15:03:43.497Z,97.76
2023-04-16T15:06:12.063Z,97.77
2023-04-16T15:08:40.405Z,97.28
2023-04-16T15:11:08.774Z,97.34
2023-04-16T15:13:37.161Z,97.88
2023-04-16T15:16:05.800Z,97.67
2023-04-16T15:18:34.212Z,97.60
2023-04-16T15:21:02.531Z,97.99
2023-04-16T15:23:31.076Z,98.56
2023-04-16T15:25:59.546Z,98.32
2023-04-16T15:28:27.900Z,99.05
2023-04-16T15:30:56.786Z,99.40
2023-04-16T15:33:26.620Z,99.71
2023-04-16T15:35:55.001Z,99.94
2023-04-16T15:38:23.326Z,99.97
2023-04-16T15:40:52.036Z,100.00
2023-04-16T15:43:20.413Z,99.71
2023-04-16T15:45:48.859Z,99.63
2023-04-16T15:48:17.458Z,99.24
2023-04-16T15:50:46.084Z,98.70
2023-04-16T15:53:14.585Z,98.38
2023-04-16T15:55:43.641Z,98.44
2023-04-16T15:58:13.067Z,98.49
2023-04-16T16:00:42.064Z,98.48
2023-04-16T16:03:11.346Z,98.17
2023-04-16T16:05:40.664Z,98.43
2023-04-16T16:08:09.092Z,98.46
2023-04-16T16:10:37.384Z,98.25
2023-04-16T16:13:08.186Z,98.67
2023-04-16T16:15:36.589Z,99.32
2023-04-16T16:18:05.482Z,100.00
2023-04-16T16:20:34.764Z,100.00
2023-04-16T16:23:03.544Z,100.00
2023-04-16T16:25:32.085Z,100.00
2023-04-16T16:28:00.805Z,100.00
2023-04-16T16:30:29.214Z,99.97
2023-04-16T16:32:58.043Z,99.94
2023-04-16T16:35:26.595Z,99.93
2023-04-16T16:37:57.416Z,99.79
2023-04-16T16:40:25.890Z,99.61
2023-04-16T16:42:54.438Z,98.40
2023-04-16T16:45:23.327Z,97.55
2023-04-16T16:47:52.032Z,97.01
2023-04-16T16:50:20.632Z,96.89
2023-04-16T16:52:48.940Z,97.36
2023-04-16T16:55:18.765Z,97.54
2023-04-16T16:57:47.322Z,97.64
2023-04-16T17:00:19.982Z,97.84
2023-04-16T17:02:51.442Z,98.48
2023-04-16T17:05:20.176Z,99.21
2023-04-16T17:07:48.537Z,99.98
2023-04-16T17:10:21.163Z,100.00
2023-04-16T17:12:51.254Z,100.00
2023-04-16T17:15:21.804Z,100.00
2023-04-16T17:17:50.721Z,99.86
2023-04-16T17:20:20.166Z,99.40
2023-04-16T17:22:48.658Z,99.25
2023-04-16T17:25:17.136Z,99.84
2023-04-16T17:27:45.517Z,99.75
2023-04-16T17:30:14.605Z,100.00
2023-04-16T17:32:42.967Z,100.00
2023-04-16T17:35:11.484Z,100.00
2023-04-16T17:37:40.256Z,100.00
2023-04-16T17:40:10.187Z,100.00
2023-04-16T17:42:38.783Z,100.00
2023-04-16T17:45:08.024Z,100.00
2023-04-16T17:47:36.678Z,100.00
2023-04-16T17:50:05.762Z,100.00
2023-04-16T17:52:34.622Z,100.00
2023-04-16T17:55:03.998Z,100.00
2023-04-16T17:57:32.760Z,100.00
2023-04-16T18:00:01.563Z,100.00
2023-04-16T18:02:41.099Z,100.00
2023-04-16T18:05:10.201Z,100.00
2023-04-16T18:07:39.432Z,100.00
2023-04-16T18:10:08.972Z,100.00
2023-04-16T18:12:37.477Z,100.00
2023-04-16T18:15:07.327Z,100.00
2023-04-16T18:17:35.790Z,100.00
2023-04-16T18:20:07.226Z,100.00
2023-04-16T18:22:35.571Z,100.00
2023-04-16T18:25:05.448Z,100.00
2023-04-16T18:27:33.950Z,100.00
2023-04-16T18:30:04.001Z,100.00
2023-04-16T18:32:33.569Z,100.00
2023-04-16T18:35:02.445Z,100.00
2023-04-16T18:37:31.065Z,100.00
2023-04-16T18:39:59.743Z,100.00
2023-04-16T18:42:28.647Z,100.00
2023-04-16T18:44:57.343Z,99.56
2023-04-16T18:47:27.730Z,99.38
2023-04-16T18:49:56.216Z,99.45
2023-04-16T18:52:25.103Z,99.62
2023-04-16T18:54:53.593Z,98.78
2023-04-16T18:57:21.977Z,98.84
2023-04-16T18:59:50.465Z,98.72
2023-04-16T19:02:18.972Z,98.52
2023-04-16T19:04:47.668Z,98.16
2023-04-16T19:07:16.216Z,98.68
2023-04-16T19:09:44.594Z,98.46
2023-04-16T19:12:12.998Z,97.67
2023-04-16T19:14:41.596Z,97.99
2023-04-16T19:17:10.026Z,98.52
2023-04-16T19:19:38.495Z,98.54
2023-04-16T19:22:06.866Z,98.57
2023-04-16T19:24:35.670Z,98.07
2023-04-16T19:27:04.073Z,98.10
2023-04-16T19:29:35.605Z,98.83
2023-04-16T19:32:04.179Z,99.23
2023-04-16T19:34:32.655Z,99.58
2023-04-16T19:37:01.033Z,99.42
2023-04-16T19:39:29.427Z,99.13
2023-04-16T19:41:57.952Z,99.07
2023-04-16T19:44:27.861Z,99.39
2023-04-16T19:46:56.690Z,99.49
2023-04-16T19:49:34.553Z,99.43
2023-04-16T19:52:03.160Z,98.51
2023-04-16T19:54:33.892Z,98.54
2023-04-16T19:57:02.438Z,99.05
2023-04-16T19:59:32.510Z,98.69
2023-04-16T20:02:01.258Z,99.13
2023-04-16T20:04:29.835Z,99.50
2023-04-16T20:06:58.978Z,99.23
2023-04-16T20:09:27.455Z,99.45
2023-04-16T20:11:55.929Z,99.90
2023-04-16T20:14:24.265Z,100.00
2023-04-16T20:16:52.981Z,99.87
2023-04-16T20:19:22.374Z,99.60
2023-04-16T20:21:50.962Z,98.92
2023-04-16T20:24:19.696Z,99.08
2023-04-16T20:26:48.047Z,99.15
2023-04-16T20:29:16.751Z,99.01
2023-04-16T20:31:46.337Z,99.29
2023-04-16T20:34:14.919Z,99.69
2023-04-16T20:36:43.503Z,99.06
2023-04-16T20:39:12.640Z,98.44
2023-04-16T20:41:44.375Z,98.40
2023-04-16T20:44:18.274Z,98.48
2023-04-16T20:46:49.875Z,98.47
2023-04-16T20:49:18.844Z,98.69
2023-04-16T20:51:47.174Z,98.96
2023-04-16T20:54:15.604Z,99.85
2023-04-16T20:56:45.082Z,100.00
2023-04-16T20:59:13.694Z,100.00
2023-04-16T21:01:42.101Z,100.00
2023-04-16T21:04:10.877Z,100.00
2023-04-16T21:06:43.225Z,100.00
2023-04-16T21:09:12.104Z,100.00
2023-04-16T21:11:40.963Z,100.00
2023-04-16T21:14:09.409Z,100.00
2023-04-16T21:16:37.897Z,100.00
2023-04-16T21:19:07.077Z,100.00
2023-04-16T21:21:35.655Z,100.00
2023-04-16T21:24:04.317Z,100.00
2023-04-16T21:26:32.701Z,100.00
2023-04-16T21:29:01.316Z,100.00
2023-04-16T21:31:29.771Z,100.00
2023-04-16T21:33:58.102Z,100.00
2023-04-16T21:36:27.983Z,100.00
2023-04-16T21:38:56.385Z,100.00
2023-04-16T21:41:24.759Z,100.00
2023-04-16T21:43:53.278Z,100.00
2023-04-16T21:46:21.859Z,100.00
2023-04-16T21:48:51.187Z,100.00
2023-04-16T21:51:20.348Z,100.00
2023-04-16T21:53:48.648Z,100.00
2023-04-16T21:56:17.069Z,100.00
2023-04-16T21:58:45.697Z,100.00
2023-04-16T22:01:14.435Z,100.00
2023-04-16T22:03:42.921Z,100.00
2023-04-16T22:06:11.854Z,100.00
2023-04-16T22:08:40.237Z,100.00
2023-04-16T22:11:08.675Z,100.00
2023-04-16T22:13:36.992Z,100.00
2023-04-16T22:16:05.956Z,100.00
2023-04-16T22:18:34.361Z,100.00
2023-04-16T22:21:03.066Z,100.00
2023-04-16T22:23:31.634Z,100.00
2023-04-16T22:26:03.078Z,100.00
2023-04-16T22:28:31.510Z,100.00
2023-04-16T22:30:59.925Z,100.00
2023-04-16T22:33:31.311Z,99.99
2023-04-16T22:36:00.414Z,99.55
2023-04-16T22:38:28.736Z,99.12
2023-04-16T22:40:57.161Z,98.98
2023-04-16T22:43:25.655Z,98.71
2023-04-16T22:46:04.863Z,98.85
2023-04-16T22:48:36.505Z,99.04
2023-04-16T22:51:09.293Z,99.13
2023-04-16T22:53:38.287Z,99.12
2023-04-16T22:56:07.105Z,98.70
2023-04-16T22:58:35.885Z,98.05
2023-04-16T23:01:04.505Z,98.32
2023-04-16T23:03:33.589Z,98.20
2023-04-16T23:06:03.777Z,98.51
2023-04-16T23:08:32.250Z,98.48
2023-04-16T23:11:00.762Z,98.44
2023-04-16T23:13:29.236Z,98.28
2023-04-16T23:15:57.911Z,98.55
2023-04-16T23:18:26.267Z,98.71
2023-04-16T23:20:54.641Z,98.69
2023-04-16T23:23:22.941Z,98.40
2023-04-16T23:25:55.042Z,98.17
2023-04-16T23:28:23.357Z,97.85
2023-04-16T23:30:53.079Z,97.81
2023-04-16T23:33:21.726Z,97.73
2023-04-16T23:35:50.156Z,97.70
2023-04-16T23:38:18.544Z,97.40
2023-04-16T23:40:46.996Z,97.24
2023-04-16T23:43:15.635Z,97.21
2023-04-16T23:45:44.095Z,97.23
2023-04-16T23:48:12.566Z,97.01
2023-04-16T23:50:40.966Z,96.94
2023-04-16T23:53:09.308Z,96.96
2023-04-16T23:55:37.623Z,96.96
2023-04-16T23:58:06.098Z,96.70
